Time;durP1;ratioP1;P1;durP2;ratioP2;P2;SDS_P1;SDS_P2;PMS_P1;PMS_P2;Temp;Humidity;BMP_temperature;BMP_pressure;BME280_temperature;BME280_humidity;BME280_pressure;Samples;Min_cycle;Max_cycle;Signal;HPM_P1;HPM_P2
2021/08/26 00:00:09;;;;;;;45.53;7.37;;;14.80;88.60;;;;;;5096582;28;20198;-92
2021/08/26 00:08:04;;;;;;;36.00;5.77;;;14.90;88.50;;;;;;5096759;28;20225;-91
2021/08/26 00:10:30;;;;;;;37.43;6.47;;;14.90;88.70;;;;;;5078709;28;20179;-91
2021/08/26 00:12:57;;;;;;;37.80;6.00;;;14.90;88.70;;;;;;5096323;28;20186;-91
2021/08/26 00:15:23;;;;;;;47.33;7.60;;;14.90;88.70;;;;;;5078442;28;20258;-92
2021/08/26 00:17:48;;;;;;;42.73;5.87;;;14.90;88.60;;;;;;5078197;28;20202;-92
2021/08/26 00:20:14;;;;;;;41.50;6.67;;;14.90;88.80;;;;;;5078582;28;20198;-92
2021/08/26 00:22:40;;;;;;;30.43;5.53;;;14.90;88.90;;;;;;5096904;28;20220;-92
2021/08/26 00:25:06;;;;;;;34.20;5.70;;;14.90;88.90;;;;;;5078353;28;20170;-92
2021/08/26 00:27:33;;;;;;;32.67;6.67;;;14.90;88.80;;;;;;5078487;28;20179;-92
2021/08/26 00:29:58;;;;;;;49.97;9.10;;;14.90;88.80;;;;;;5078594;28;20667;-92
2021/08/26 00:32:24;;;;;;;36.90;6.43;;;14.90;88.90;;;;;;5078433;28;20183;-92
2021/08/26 00:34:50;;;;;;;29.83;5.90;;;14.90;88.90;;;;;;5078409;28;20171;-92
2021/08/26 00:37:16;;;;;;;40.63;7.23;;;14.90;88.90;;;;;;5077855;28;20258;-91
2021/08/26 00:39:41;;;;;;;41.97;6.67;;;14.90;89.00;;;;;;5078048;28;20686;-92
2021/08/26 00:42:08;;;;;;;39.53;6.20;;;14.90;89.00;;;;;;5077901;28;20542;-91
2021/08/26 00:44:40;;;;;;;43.33;7.37;;;14.90;88.90;;;;;;5077962;28;20171;-92
2021/08/26 00:47:07;;;;;;;35.30;7.77;;;14.90;88.90;;;;;;5078110;28;20269;-92
2021/08/26 00:49:33;;;;;;;40.57;6.57;;;14.80;88.90;;;;;;5077857;28;20194;-92
2021/08/26 00:51:59;;;;;;;39.13;6.77;;;14.80;89.00;;;;;;5077594;28;20266;-91
2021/08/26 00:54:24;;;;;;;33.83;6.67;;;14.80;88.90;;;;;;5077788;28;20247;-91
2021/08/26 00:56:50;;;;;;;36.67;7.13;;;14.80;88.90;;;;;;5077323;28;20278;-92
2021/08/26 00:59:16;;;;;;;42.87;7.80;;;14.80;89.00;;;;;;5078333;28;20194;-93
2021/08/26 01:02:11;;;;;;;24.87;6.30;;;14.80;89.00;;;;;;5078146;28;20288;-92
2021/08/26 01:04:50;;;;;;;35.20;7.33;;;14.80;88.90;;;;;;5078220;28;20327;-92
2021/08/26 01:07:30;;;;;;;33.77;6.53;;;14.70;89.00;;;;;;5077314;28;20528;-92
2021/08/26 01:10:05;;;;;;;41.17;7.07;;;14.70;89.10;;;;;;5076866;28;20202;-91
2021/08/26 01:12:32;;;;;;;43.90;6.80;;;14.60;89.20;;;;;;5076950;28;20170;-92
2021/08/26 01:14:58;;;;;;;38.97;7.23;;;14.50;89.20;;;;;;5076903;28;20171;-92
2021/08/26 01:17:29;;;;;;;29.87;8.00;;;14.50;89.30;;;;;;5076842;28;20196;-92
2021/08/26 01:20:01;;;;;;;41.77;7.30;;;14.50;89.40;;;;;;5076701;28;20225;-92
2021/08/26 01:22:29;;;;;;;38.77;6.93;;;14.40;89.30;;;;;;5076658;28;20179;-92
2021/08/26 01:25:03;;;;;;;35.30;7.57;;;14.40;89.50;;;;;;5076691;28;20167;-92
2021/08/26 01:27:42;;;;;;;35.83;6.70;;;14.30;89.80;;;;;;5076572;28;20159;-92
2021/08/26 01:30:10;;;;;;;35.87;6.50;;;14.30;89.90;;;;;;5076504;28;20163;-92
2021/08/26 01:32:36;;;;;;;38.53;7.20;;;14.30;89.90;;;;;;5076494;28;20175;-92
2021/08/26 01:35:06;;;;;;;28.80;6.97;;;14.30;90.00;;;;;;5076416;28;20673;-92
2021/08/26 01:37:32;;;;;;;36.63;7.27;;;14.30;89.90;;;;;;5076389;28;20182;-92
2021/08/26 01:39:58;;;;;;;44.97;8.30;;;14.30;90.10;;;;;;5076060;28;20259;-92
2021/08/26 01:42:28;;;;;;;44.70;7.23;;;14.30;90.30;;;;;;5076284;28;20681;-92
2021/08/26 01:44:54;;;;;;;33.57;7.00;;;14.30;90.30;;;;;;5076602;28;20224;-92
2021/08/26 01:47:21;;;;;;;33.87;6.63;;;14.30;90.40;;;;;;5076193;28;20642;-92
2021/08/26 01:49:48;;;;;;;46.83;8.83;;;14.30;90.50;;;;;;5076372;28;20293;-92
2021/08/26 01:52:25;;;;;;;35.60;6.73;;;14.20;90.40;;;;;;5076618;28;20631;-92
2021/08/26 01:54:59;;;;;;;35.53;6.80;;;14.30;90.40;;;;;;5076206;28;20194;-92
2021/08/26 01:57:26;;;;;;;37.50;7.53;;;14.20;90.40;;;;;;5076123;28;20587;-92
2021/08/26 01:59:52;;;;;;;35.77;7.10;;;14.20;90.70;;;;;;5075805;28;20660;-91
2021/08/26 02:02:18;;;;;;;49.73;7.40;;;14.20;90.80;;;;;;5076017;28;20203;-92
2021/08/26 02:04:43;;;;;;;41.53;7.47;;;14.20;90.90;;;;;;5076211;28;20171;-92
2021/08/26 02:07:09;;;;;;;49.33;8.07;;;14.30;91.00;;;;;;5075634;28;20178;-92
2021/08/26 02:09:35;;;;;;;42.97;7.67;;;14.20;91.10;;;;;;5075686;28;20187;-92
2021/08/26 02:12:01;;;;;;;43.50;8.43;;;14.30;91.20;;;;;;5076091;28;20189;-91
2021/08/26 02:14:27;;;;;;;47.73;7.70;;;14.30;91.20;;;;;;5076336;28;20521;-92
2021/08/26 02:16:53;;;;;;;42.60;7.90;;;14.20;91.10;;;;;;5075748;28;20182;-92
2021/08/26 02:19:18;;;;;;;42.23;8.03;;;14.20;91.20;;;;;;5075733;28;20722;-92
2021/08/26 02:21:44;;;;;;;46.13;6.90;;;14.30;91.60;;;;;;5075701;28;20567;-92
2021/08/26 02:24:10;;;;;;;38.07;7.77;;;14.20;91.50;;;;;;5075619;28;20177;-92
2021/08/26 02:26:36;;;;;;;36.73;7.53;;;14.20;91.50;;;;;;5075653;28;20171;-92
2021/08/26 02:29:03;;;;;;;45.03;8.00;;;14.30;91.60;;;;;;5075515;28;20195;-92
2021/08/26 02:31:29;;;;;;;38.73;7.33;;;14.30;91.60;;;;;;5075618;28;20175;-92
2021/08/26 02:33:55;;;;;;;35.60;7.37;;;14.30;91.60;;;;;;5075602;28;20655;-92
2021/08/26 02:36:24;;;;;;;43.80;8.10;;;14.30;91.50;;;;;;5075451;28;20174;-92
2021/08/26 02:38:50;;;;;;;36.23;6.90;;;14.30;91.50;;;;;;5075881;28;20206;-92
2021/08/26 02:41:16;;;;;;;46.97;7.37;;;14.30;91.50;;;;;;5077091;28;20202;-92
2021/08/26 02:43:42;;;;;;;42.53;7.97;;;14.30;91.60;;;;;;5076398;28;20290;-92
2021/08/26 02:46:08;;;;;;;45.63;8.37;;;14.30;91.50;;;;;;5077087;28;20238;-92
2021/08/26 02:48:33;;;;;;;35.07;6.03;;;14.30;91.40;;;;;;5076673;28;20277;-92
2021/08/26 02:50:59;;;;;;;47.13;7.83;;;14.30;91.40;;;;;;5076667;28;20542;-92
2021/08/26 02:53:25;;;;;;;49.90;8.70;;;14.30;91.40;;;;;;5076645;28;20185;-92
2021/08/26 02:55:50;;;;;;;33.10;6.70;;;14.30;91.50;;;;;;5076325;28;20171;-92
2021/08/26 02:58:16;;;;;;;39.40;7.27;;;14.20;91.50;;;;;;5076500;28;20202;-92
2021/08/26 03:00:42;;;;;;;48.60;8.83;;;14.20;91.70;;;;;;5076351;28;20552;-92
2021/08/26 03:03:08;;;;;;;41.73;7.07;;;14.20;91.80;;;;;;5076386;28;20548;-92
2021/08/26 03:05:34;;;;;;;46.77;7.20;;;14.20;91.90;;;;;;5076373;28;20179;-92
2021/08/26 03:07:59;;;;;;;36.63;6.87;;;14.20;91.90;;;;;;5076313;28;20681;-92
2021/08/26 03:10:26;;;;;;;50.40;8.13;;;14.20;91.90;;;;;;5076655;28;20228;-92
2021/08/26 03:12:52;;;;;;;39.60;7.67;;;14.20;91.90;;;;;;5076227;28;20212;-92
2021/08/26 03:15:18;;;;;;;44.10;8.73;;;14.10;92.00;;;;;;5076237;28;20178;-92
2021/08/26 03:17:43;;;;;;;35.97;7.33;;;14.00;92.10;;;;;;5076390;28;20174;-93
2021/08/26 03:20:10;;;;;;;42.83;7.83;;;14.10;92.20;;;;;;5079093;28;20206;-92
2021/08/26 03:22:36;;;;;;;52.80;9.50;;;14.10;92.30;;;;;;5080085;28;20368;-92
2021/08/26 03:25:03;;;;;;;37.50;6.97;;;14.00;92.30;;;;;;5080567;28;20175;-93
2021/08/26 03:27:28;;;;;;;46.40;8.97;;;14.00;92.20;;;;;;5079984;28;20252;-92
2021/08/26 03:29:54;;;;;;;55.37;9.43;;;14.00;92.20;;;;;;5079800;28;20210;-92
2021/08/26 03:32:20;;;;;;;38.33;8.47;;;14.10;92.20;;;;;;5079998;28;20654;-92
2021/08/26 03:34:45;;;;;;;38.07;7.60;;;14.20;92.30;;;;;;5080240;28;20216;-92
2021/08/26 03:37:11;;;;;;;45.30;7.60;;;14.10;92.30;;;;;;5079734;28;20269;-92
2021/08/26 03:39:37;;;;;;;44.83;7.30;;;14.20;92.30;;;;;;5079850;28;20214;-92
2021/08/26 03:42:03;;;;;;;42.73;6.77;;;14.20;92.40;;;;;;5080038;28;20239;-92
2021/08/26 03:44:28;;;;;;;39.50;7.50;;;14.20;92.50;;;;;;5079728;28;20175;-92
2021/08/26 03:46:54;;;;;;;42.50;6.97;;;14.20;92.50;;;;;;5079572;28;20710;-92
2021/08/26 03:49:20;;;;;;;51.40;7.83;;;14.20;92.50;;;;;;5079621;28;20281;-92
2021/08/26 03:51:46;;;;;;;45.57;9.23;;;14.20;92.50;;;;;;5080587;28;20185;-92
2021/08/26 03:54:12;;;;;;;49.17;8.97;;;14.20;92.60;;;;;;5079778;28;20183;-92
2021/08/26 03:56:37;;;;;;;40.90;8.20;;;14.20;92.60;;;;;;5079199;28;20183;-92
2021/08/26 03:59:03;;;;;;;43.70;8.50;;;14.30;92.60;;;;;;5079670;28;20291;-92
2021/08/26 04:01:29;;;;;;;45.03;8.17;;;14.30;92.70;;;;;;5097456;28;20195;-92
2021/08/26 04:03:54;;;;;;;39.30;7.20;;;14.30;92.70;;;;;;5079045;28;20202;-92
2021/08/26 04:06:20;;;;;;;49.27;8.73;;;14.30;92.60;;;;;;5079054;28;20178;-92
2021/08/26 04:08:46;;;;;;;41.03;8.17;;;14.30;92.60;;;;;;5079002;28;20658;-92
2021/08/26 04:11:11;;;;;;;43.23;8.17;;;14.30;92.70;;;;;;5078797;28;20175;-92
2021/08/26 04:13:37;;;;;;;53.70;8.40;;;14.30;92.60;;;;;;5078787;28;20559;-92
2021/08/26 04:16:03;;;;;;;39.97;7.03;;;14.30;92.50;;;;;;5078795;28;20190;-92
2021/08/26 04:18:28;;;;;;;48.57;7.73;;;14.30;92.50;;;;;;5078615;28;20626;-92
2021/08/26 04:20:54;;;;;;;47.17;8.63;;;14.30;92.50;;;;;;5078690;28;20206;-92
2021/08/26 04:23:20;;;;;;;39.50;7.73;;;14.40;92.40;;;;;;5078542;28;20179;-92
2021/08/26 04:25:45;;;;;;;48.43;8.00;;;14.40;92.40;;;;;;5078613;28;20174;-92
2021/08/26 04:28:11;;;;;;;38.73;7.77;;;14.40;92.30;;;;;;5078461;28;20286;-92
2021/08/26 04:30:37;;;;;;;48.37;7.57;;;14.40;92.40;;;;;;5078224;28;20189;-92
2021/08/26 04:33:03;;;;;;;44.23;8.70;;;14.40;92.40;;;;;;5079196;28;20186;-92
2021/08/26 04:35:29;;;;;;;47.23;7.67;;;14.40;92.40;;;;;;5079139;28;20194;-92
2021/08/26 04:37:55;;;;;;;41.57;8.27;;;14.40;92.40;;;;;;5077893;28;20202;-92
2021/08/26 04:40:21;;;;;;;50.87;7.93;;;14.40;92.50;;;;;;5078386;28;20199;-92
2021/08/26 04:42:46;;;;;;;46.37;8.23;;;14.40;92.50;;;;;;5096321;28;20171;-92
2021/08/26 04:45:12;;;;;;;46.13;7.90;;;14.50;92.50;;;;;;5096363;28;20198;-92
2021/08/26 04:47:38;;;;;;;36.60;7.57;;;14.50;92.50;;;;;;5077791;28;20240;-92
2021/08/26 04:50:04;;;;;;;39.43;7.60;;;14.40;92.50;;;;;;5077822;28;20537;-92
2021/08/26 04:52:30;;;;;;;36.70;6.80;;;14.50;92.60;;;;;;5077894;28;20183;-92
2021/08/26 04:54:56;;;;;;;42.13;7.57;;;14.50;92.50;;;;;;5077955;28;20174;-92
2021/08/26 04:57:21;;;;;;;39.83;7.13;;;14.50;92.50;;;;;;5077932;28;20179;-92
2021/08/26 04:59:47;;;;;;;44.80;7.67;;;14.60;92.40;;;;;;5077972;28;20245;-92
2021/08/26 05:02:13;;;;;;;40.07;7.07;;;14.60;92.40;;;;;;5078144;28;20179;-92
2021/08/26 05:04:38;;;;;;;39.20;7.23;;;14.50;92.30;;;;;;5077951;28;20171;-92
2021/08/26 05:07:04;;;;;;;42.77;7.77;;;14.50;92.30;;;;;;5078126;28;20170;-92
2021/08/26 05:09:29;;;;;;;36.77;6.57;;;14.60;92.30;;;;;;5077489;28;20190;-92
2021/08/26 05:11:57;;;;;;;39.87;6.33;;;14.70;92.40;;;;;;5077724;28;20646;-92
2021/08/26 05:14:24;;;;;;;33.60;6.77;;;14.70;92.30;;;;;;5078585;28;20206;-92
2021/08/26 05:16:49;;;;;;;32.27;6.53;;;14.70;92.30;;;;;;5077605;28;20645;-92
2021/08/26 05:19:15;;;;;;;33.17;6.97;;;14.70;92.00;;;;;;5077179;28;20353;-92
2021/08/26 05:21:41;;;;;;;32.87;6.50;;;14.70;91.80;;;;;;5077708;28;20221;-92
2021/08/26 05:24:06;;;;;;;34.30;6.57;;;14.70;91.60;;;;;;5077393;28;20588;-92
2021/08/26 05:26:32;;;;;;;30.30;6.20;;;14.70;91.40;;;;;;5077606;28;20182;-92
2021/08/26 05:28:58;;;;;;;30.87;6.23;;;14.80;91.30;;;;;;5077091;28;20570;-92
2021/08/26 05:31:23;;;;;;;31.93;6.10;;;14.70;91.20;;;;;;5077184;28;20673;-92
2021/08/26 05:33:49;;;;;;;35.80;6.00;;;14.80;91.20;;;;;;5076774;28;20650;-92
2021/08/26 05:36:15;;;;;;;32.00;7.80;;;14.80;91.00;;;;;;5077084;28;20179;-92
2021/08/26 05:38:40;;;;;;;29.63;5.73;;;14.80;91.00;;;;;;5077836;28;20206;-92
2021/08/26 05:41:06;;;;;;;28.57;5.47;;;14.80;90.80;;;;;;5075841;28;20214;-90
2021/08/26 05:43:32;;;;;;;26.63;5.93;;;14.80;90.70;;;;;;5094584;28;20166;-91
2021/08/26 05:45:57;;;;;;;24.03;5.73;;;14.80;90.10;;;;;;5094589;28;20167;-91
2021/08/26 05:48:23;;;;;;;25.90;5.10;;;14.80;89.60;;;;;;5076286;28;20562;-90
2021/08/26 05:50:48;;;;;;;22.10;4.63;;;14.80;89.10;;;;;;5076512;28;20174;-91
2021/08/26 05:53:14;;;;;;;22.53;3.90;;;14.80;89.00;;;;;;5094257;28;20194;-90
2021/08/26 05:55:40;;;;;;;19.43;4.40;;;14.80;88.70;;;;;;5076268;28;20642;-91
2021/08/26 05:58:05;;;;;;;25.07;5.03;;;14.80;88.20;;;;;;5075944;28;20742;-91
2021/08/26 06:00:31;;;;;;;20.58;4.22;;;14.70;88.20;;;;;;5094117;28;20729;-90
2021/08/26 06:02:57;;;;;;;19.17;4.40;;;14.80;88.20;;;;;;5075966;28;20219;-90
2021/08/26 06:05:22;;;;;;;25.80;4.67;;;14.80;88.20;;;;;;5094227;28;20166;-91
2021/08/26 06:07:48;;;;;;;16.17;4.20;;;14.80;88.50;;;;;;5076356;28;20178;-91
2021/08/26 06:10:14;;;;;;;25.13;5.18;;;14.80;88.30;;;;;;5076452;28;20175;-91
2021/08/26 06:12:41;;;;;;;21.77;4.30;;;14.80;88.40;;;;;;5076277;28;20174;-90
2021/08/26 06:15:09;;;;;;;21.40;4.40;;;14.80;88.20;;;;;;5094441;28;20209;-90
2021/08/26 06:17:35;;;;;;;24.30;4.60;;;14.90;88.00;;;;;;5076039;28;20202;-90
2021/08/26 06:20:03;;;;;;;14.95;4.05;;;14.90;88.10;;;;;;5094160;28;20230;-90
2021/08/26 06:22:29;;;;;;;18.63;3.97;;;14.90;88.10;;;;;;5075779;28;20200;-91
2021/08/26 06:24:54;;;;;;;17.03;3.93;;;14.90;87.60;;;;;;5075964;28;20174;-90
2021/08/26 06:27:20;;;;;;;23.02;4.43;;;14.90;87.10;;;;;;5076548;28;20266;-90
2021/08/26 06:29:46;;;;;;;19.45;3.72;;;14.80;86.60;;;;;;5075915;28;20239;-90
2021/08/26 06:32:11;;;;;;;16.15;3.58;;;14.80;86.20;;;;;;5075906;28;20221;-90
2021/08/26 06:34:37;;;;;;;20.25;3.97;;;14.80;86.20;;;;;;5093703;28;20216;-90
2021/08/26 06:37:03;;;;;;;16.70;3.23;;;14.80;85.50;;;;;;5075965;28;20171;-90
2021/08/26 06:39:29;;;;;;;15.90;3.00;;;14.80;85.70;;;;;;5075895;28;20206;-90
2021/08/26 06:41:55;;;;;;;16.77;3.63;;;14.80;85.50;;;;;;5075650;28;20562;-90
2021/08/26 06:44:21;;;;;;;14.87;3.47;;;14.80;85.60;;;;;;5075850;28;20547;-91
2021/08/26 06:46:47;;;;;;;18.47;4.37;;;14.80;85.70;;;;;;5093731;28;20224;-90
2021/08/26 06:49:13;;;;;;;14.93;3.60;;;14.80;85.40;;;;;;5075954;28;20190;-90
2021/08/26 06:51:38;;;;;;;12.63;2.73;;;14.80;85.00;;;;;;5076089;28;20174;-90
2021/08/26 06:54:04;;;;;;;15.90;2.60;;;14.80;85.10;;;;;;5078974;28;20175;-90
2021/08/26 06:56:30;;;;;;;13.80;3.13;;;14.80;84.80;;;;;;5098295;28;20254;-90
2021/08/26 06:58:55;;;;;;;14.07;3.60;;;14.80;84.90;;;;;;5080015;28;20194;-90
2021/08/26 07:01:21;;;;;;;14.37;3.20;;;14.80;84.60;;;;;;5079683;28;20198;-90
2021/08/26 07:03:47;;;;;;;10.57;3.23;;;14.80;84.00;;;;;;5079623;28;20219;-91
2021/08/26 07:06:14;;;;;;;14.47;3.73;;;14.80;83.90;;;;;;5098024;28;20253;-91
2021/08/26 07:08:40;;;;;;;9.70;2.63;;;14.80;83.90;;;;;;5097714;28;20187;-91
2021/08/26 07:11:06;;;;;;;13.52;3.50;;;14.70;84.20;;;;;;5097613;28;20661;-91
2021/08/26 07:13:31;;;;;;;10.07;2.90;;;14.70;84.30;;;;;;5097800;28;20567;-91
2021/08/26 07:15:57;;;;;;;13.30;3.37;;;14.70;84.30;;;;;;5079652;28;20178;-91
2021/08/26 07:18:24;;;;;;;12.37;2.37;;;14.80;84.40;;;;;;5079247;28;20200;-91
2021/08/26 07:20:50;;;;;;;9.90;2.83;;;14.70;84.70;;;;;;5097395;28;20187;-90
2021/08/26 07:23:16;;;;;;;11.75;2.95;;;14.70;84.60;;;;;;5097485;28;20193;-90
2021/08/26 07:25:42;;;;;;;15.13;3.20;;;14.70;84.90;;;;;;5079502;28;20198;-91
2021/08/26 07:28:08;;;;;;;14.60;2.60;;;14.80;84.90;;;;;;5079317;28;20617;-91
2021/08/26 07:30:35;;;;;;;12.50;2.97;;;14.80;84.80;;;;;;5097346;28;20221;-90
2021/08/26 07:33:01;;;;;;;13.00;3.03;;;14.90;85.10;;;;;;5079640;28;20223;-90
2021/08/26 07:35:26;;;;;;;11.07;3.05;;;14.90;85.60;;;;;;5079027;28;20693;-90
2021/08/26 07:37:52;;;;;;;14.70;2.87;;;15.10;86.20;;;;;;5078937;28;20278;-90
2021/08/26 07:40:18;;;;;;;13.38;3.17;;;15.20;85.50;;;;;;5097346;28;20232;-91
2021/08/26 07:42:44;;;;;;;19.50;3.67;;;15.30;85.40;;;;;;5078916;28;20179;-91
2021/08/26 07:45:10;;;;;;;13.82;2.58;;;15.30;84.80;;;;;;5097221;28;20224;-90
2021/08/26 07:47:36;;;;;;;13.80;3.30;;;15.30;83.90;;;;;;5078974;28;20167;-90
2021/08/26 07:50:03;;;;;;;21.20;3.22;;;15.20;83.20;;;;;;5078957;28;20178;-90
2021/08/26 07:52:29;;;;;;;9.10;2.63;;;15.20;83.90;;;;;;5078701;28;20208;-91
2021/08/26 07:54:54;;;;;;;12.43;2.47;;;15.20;83.50;;;;;;5079160;28;20210;-91
2021/08/26 07:57:20;;;;;;;16.60;2.63;;;15.20;83.70;;;;;;5079281;28;20249;-91
2021/08/26 07:59:46;;;;;;;16.03;2.23;;;15.20;83.40;;;;;;5097334;28;20232;-91
2021/08/26 08:02:12;;;;;;;10.85;2.92;;;15.30;83.30;;;;;;5079675;28;20590;-91
2021/08/26 08:04:37;;;;;;;15.45;2.60;;;15.20;83.30;;;;;;5078781;28;20175;-91
2021/08/26 08:07:03;;;;;;;8.93;2.57;;;15.20;82.80;;;;;;5079515;28;20178;-91
2021/08/26 08:09:29;;;;;;;13.20;2.27;;;15.20;82.40;;;;;;5078815;28;20202;-91
2021/08/26 08:11:54;;;;;;;11.20;2.92;;;15.10;82.60;;;;;;5079216;28;20185;-91
2021/08/26 08:14:20;;;;;;;11.65;2.20;;;15.10;82.50;;;;;;5078873;28;20182;-91
2021/08/26 08:16:46;;;;;;;11.13;2.27;;;15.10;82.40;;;;;;5097007;28;20559;-91
2021/08/26 08:19:11;;;;;;;13.57;2.63;;;15.00;82.50;;;;;;5078698;28;20198;-91
2021/08/26 08:21:37;;;;;;;11.80;2.35;;;15.00;83.10;;;;;;5078872;28;20248;-91
2021/08/26 08:24:03;;;;;;;12.65;2.70;;;15.10;82.10;;;;;;5078793;28;20179;-91
2021/08/26 08:26:29;;;;;;;7.90;2.40;;;15.10;82.20;;;;;;5078233;28;20207;-92
2021/08/26 08:28:54;;;;;;;9.90;2.53;;;15.10;81.70;;;;;;5078230;28;20201;-90
2021/08/26 08:31:20;;;;;;;8.63;2.13;;;15.10;81.60;;;;;;5096826;28;20580;-92
2021/08/26 08:33:46;;;;;;;12.07;2.30;;;15.10;82.00;;;;;;5080101;28;20191;-92
2021/08/26 08:36:13;;;;;;;11.60;2.20;;;15.10;82.00;;;;;;5079288;28;20189;-92
2021/08/26 08:38:39;;;;;;;12.90;2.08;;;15.10;82.10;;;;;;5079469;28;20218;-91
2021/08/26 08:41:06;;;;;;;8.23;2.20;;;15.10;82.30;;;;;;5096516;28;20201;-91
2021/08/26 08:43:34;;;;;;;12.20;2.40;;;15.20;82.10;;;;;;5096802;28;20167;-92
2021/08/26 08:46:01;;;;;;;10.73;2.30;;;15.30;82.20;;;;;;5079850;28;20525;-92
2021/08/26 08:48:28;;;;;;;16.27;3.00;;;15.30;80.90;;;;;;5079979;28;20245;-92
2021/08/26 08:50:56;;;;;;;10.88;2.40;;;15.30;81.20;;;;;;5080475;28;20522;-92
2021/08/26 08:53:22;;;;;;;10.43;2.33;;;15.40;81.10;;;;;;5080893;28;20185;-92
2021/08/26 08:55:48;;;;;;;3.90;1.70;;;15.50;80.60;;;;;;5080100;28;20179;-92
2021/08/26 08:58:14;;;;;;;10.10;2.03;;;15.50;80.50;;;;;;5080184;28;20202;-92
2021/08/26 09:00:40;;;;;;;7.63;1.67;;;15.60;80.40;;;;;;5098823;28;20212;-92
2021/08/26 09:03:06;;;;;;;9.48;1.90;;;15.70;80.20;;;;;;5079843;28;20175;-92
2021/08/26 09:05:59;;;;;;;10.13;1.73;;;15.70;80.40;;;;;;5081039;28;20178;-92
2021/08/26 09:08:28;;;;;;;6.13;1.70;;;15.70;79.70;;;;;;5080790;28;20240;-91
2021/08/26 09:11:09;;;;;;;7.20;1.65;;;15.90;79.90;;;;;;5080658;28;20206;-92
2021/08/26 09:13:35;;;;;;;7.85;1.92;;;16.10;80.20;;;;;;5099788;28;20242;-92
2021/08/26 09:16:01;;;;;;;12.35;2.65;;;16.30;79.10;;;;;;5079370;28;20789;-93
2021/08/26 09:18:27;;;;;;;5.95;1.98;;;16.40;78.20;;;;;;5079853;28;20198;-92
2021/08/26 09:21:19;;;;;;;12.57;1.63;;;16.40;77.50;;;;;;5081885;28;20339;-92
2021/08/26 09:23:56;;;;;;;10.98;1.75;;;16.50;77.40;;;;;;5075605;28;20695;-92
2021/08/26 09:26:27;;;;;;;10.00;3.22;;;16.60;77.80;;;;;;5078203;28;20162;-91
2021/08/26 09:28:58;;;;;;;8.43;1.83;;;16.70;76.30;;;;;;5077712;28;20202;-92
2021/08/26 09:31:26;;;;;;;4.55;1.52;;;16.70;76.20;;;;;;5079435;28;20167;-92
2021/08/26 09:33:56;;;;;;;9.27;1.55;;;16.80;75.40;;;;;;5079734;28;20171;-92
2021/08/26 09:36:31;;;;;;;4.68;1.40;;;16.90;74.30;;;;;;5079481;28;20191;-91
2021/08/26 09:39:00;;;;;;;15.75;1.70;;;17.00;75.10;;;;;;5078736;28;20217;-90
2021/08/26 09:41:46;;;;;;;11.25;1.75;;;17.10;73.40;;;;;;5081953;28;20190;-92
2021/08/26 09:44:19;;;;;;;7.10;1.50;;;17.10;74.00;;;;;;5080910;28;20672;-92
2021/08/26 09:46:48;;;;;;;9.18;1.58;;;17.00;73.10;;;;;;5079587;28;20220;-92
2021/08/26 09:49:17;;;;;;;7.15;1.75;;;17.30;75.20;;;;;;5081098;28;20187;-92
2021/08/26 09:51:45;;;;;;;8.02;1.60;;;17.40;73.80;;;;;;5081364;28;20170;-91
2021/08/26 09:54:34;;;;;;;6.57;1.65;;;17.50;71.90;;;;;;5079336;28;20273;-91
2021/08/26 09:57:01;;;;;;;6.18;1.58;;;17.50;72.10;;;;;;5078240;28;20175;-90
2021/08/26 09:59:43;;;;;;;7.97;1.73;;;17.60;71.10;;;;;;5095532;28;20355;-90
2021/08/26 10:02:10;;;;;;;5.93;1.40;;;17.70;72.10;;;;;;5077295;28;20200;-91
2021/08/26 10:04:37;;;;;;;4.05;1.35;;;17.90;71.80;;;;;;5077366;28;20665;-90
2021/08/26 10:07:03;;;;;;;4.95;1.23;;;18.10;70.10;;;;;;5077400;28;20186;-90
2021/08/26 10:09:29;;;;;;;3.42;1.13;;;18.20;69.20;;;;;;5077213;28;20194;-90
2021/08/26 10:11:56;;;;;;;6.53;1.67;;;18.20;69.00;;;;;;5076826;28;20174;-90
2021/08/26 10:14:22;;;;;;;9.07;1.55;;;18.00;69.00;;;;;;5077760;28;20185;-90
2021/08/26 10:16:47;;;;;;;4.50;1.88;;;17.80;69.90;;;;;;5077263;28;20174;-86
2021/08/26 10:19:15;;;;;;;3.65;1.45;;;17.60;68.60;;;;;;5075535;28;20279;-86
2021/08/26 10:21:46;;;;;;;7.40;1.75;;;17.40;70.70;;;;;;5075449;28;20198;-86
2021/08/26 10:24:13;;;;;;;6.95;1.42;;;17.40;68.10;;;;;;5093777;28;20246;-86
2021/08/26 10:26:45;;;;;;;4.50;1.02;;;17.40;69.70;;;;;;5093643;28;20173;-86
2021/08/26 10:29:11;;;;;;;4.50;1.20;;;17.70;65.50;;;;;;5093535;28;20205;-86
2021/08/26 10:31:39;;;;;;;4.97;1.10;;;17.80;64.40;;;;;;5075438;28;20689;-86
2021/08/26 10:34:29;;;;;;;3.53;1.40;;;18.20;64.10;;;;;;5075347;28;20205;-86
2021/08/26 10:36:54;;;;;;;6.25;1.17;;;18.20;66.60;;;;;;5093814;28;20155;-86
2021/08/26 10:39:37;;;;;;;6.07;1.40;;;18.00;62.10;;;;;;5075185;28;20273;-86
2021/08/26 10:42:28;;;;;;;2.53;1.00;;;18.20;65.50;;;;;;5093436;28;20189;-86
2021/08/26 10:45:19;;;;;;;6.63;1.27;;;18.40;62.00;;;;;;5075318;28;20201;-86
2021/08/26 10:47:51;;;;;;;5.43;1.35;;;18.50;62.00;;;;;;5075244;28;20222;-86
2021/08/26 10:50:27;;;;;;;6.15;1.17;;;18.30;62.40;;;;;;5075281;28;20190;-86
2021/08/26 10:52:58;;;;;;;2.53;0.90;;;18.20;60.70;;;;;;5093346;28;20163;-86
2021/08/26 10:55:31;;;;;;;4.72;1.02;;;18.10;59.80;;;;;;5093224;28;20171;-86
2021/08/26 10:58:25;;;;;;;1.38;0.77;;;18.00;61.30;;;;;;5093517;28;20197;-86
2021/08/26 11:00:54;;;;;;;2.08;0.75;;;18.00;60.20;;;;;;5093141;28;20561;-86
2021/08/26 11:03:33;;;;;;;2.75;0.93;;;18.10;60.30;;;;;;5093164;28;20190;-86
2021/08/26 11:06:18;;;;;;;3.40;0.77;;;18.10;56.10;;;;;;5075048;28;20174;-86
2021/08/26 11:08:45;;;;;;;4.07;1.15;;;17.80;57.50;;;;;;5093272;28;20240;-86
2021/08/26 11:11:39;;;;;;;1.30;0.93;;;17.80;59.60;;;;;;5093104;28;20638;-86
2021/08/26 11:14:05;;;;;;;7.68;0.90;;;17.80;60.00;;;;;;5090393;28;20191;-86
2021/08/26 11:16:36;;;;;;;3.50;0.88;;;17.90;60.20;;;;;;5075597;28;20593;-86
2021/08/26 11:19:05;;;;;;;7.78;1.10;;;17.90;61.00;;;;;;5074848;28;20198;-86
2021/08/26 11:21:43;;;;;;;5.82;1.02;;;17.70;59.40;;;;;;5074878;28;20205;-86
2021/08/26 11:24:12;;;;;;;1.80;0.77;;;17.70;59.40;;;;;;5074902;28;20177;-86
2021/08/26 11:26:56;;;;;;;2.65;0.90;;;17.70;61.30;;;;;;5092961;28;20182;-86
2021/08/26 11:29:22;;;;;;;4.20;1.10;;;17.90;59.90;;;;;;5075017;28;20209;-86
2021/08/26 11:31:54;;;;;;;3.28;0.82;;;18.10;60.10;;;;;;5074771;28;20254;-86
2021/08/26 11:34:31;;;;;;;1.90;0.77;;;18.20;59.40;;;;;;5075311;28;20178;-89
2021/08/26 11:37:03;;;;;;;2.50;0.90;;;18.30;60.20;;;;;;5075477;28;20219;-89
2021/08/26 11:39:31;;;;;;;3.63;0.88;;;18.50;56.30;;;;;;5093870;28;20213;-89
2021/08/26 11:41:57;;;;;;;3.38;0.70;;;18.30;57.10;;;;;;5079655;28;20229;-89
2021/08/26 11:44:25;;;;;;;2.38;0.90;;;18.50;58.70;;;;;;5079374;28;20586;-89
2021/08/26 11:46:51;;;;;;;1.70;0.80;;;18.70;57.00;;;;;;5079354;28;20630;-89
2021/08/26 11:49:17;;;;;;;2.58;0.70;;;18.70;57.70;;;;;;5079276;28;20209;-89
2021/08/26 11:51:42;;;;;;;3.60;1.10;;;18.50;56.30;;;;;;5079582;28;20186;-89
2021/08/26 11:54:21;;;;;;;4.28;1.30;;;18.40;56.50;;;;;;5079016;28;20174;-89
2021/08/26 11:56:53;;;;;;;2.55;0.98;;;18.00;57.00;;;;;;5079131;28;20179;-89
2021/08/26 11:59:22;;;;;;;5.72;1.00;;;17.90;59.80;;;;;;5078678;28;20194;-89
2021/08/26 12:01:47;;;;;;;10.65;1.25;;;17.80;59.90;;;;;;5079248;28;20620;-89
2021/08/26 12:04:13;;;;;;;10.82;0.95;;;17.80;59.40;;;;;;5079232;28;20167;-89
2021/08/26 12:06:40;;;;;;;2.72;0.90;;;17.70;59.70;;;;;;5079743;28;20178;-88
2021/08/26 12:09:06;;;;;;;3.65;1.10;;;17.70;59.80;;;;;;5096214;28;20666;-88
2021/08/26 12:11:32;;;;;;;6.55;1.02;;;17.70;60.30;;;;;;5096511;28;20194;-88
2021/08/26 12:13:59;;;;;;;2.88;0.80;;;17.50;59.80;;;;;;5096248;28;20171;-88
2021/08/26 12:16:28;;;;;;;4.00;0.93;;;17.50;58.60;;;;;;5096120;28;20216;-88
2021/08/26 12:18:54;;;;;;;3.33;1.13;;;17.60;60.40;;;;;;5096012;28;20571;-88
2021/08/26 12:21:20;;;;;;;1.77;0.85;;;17.70;60.20;;;;;;5095883;28;20670;-88
2021/08/26 12:23:48;;;;;;;3.35;1.15;;;17.60;61.20;;;;;;5078688;28;20171;-88
2021/08/26 12:26:15;;;;;;;3.17;1.55;;;17.70;60.20;;;;;;5096059;28;20792;-88
2021/08/26 12:28:46;;;;;;;3.88;0.80;;;17.50;59.70;;;;;;5095909;28;20215;-88
2021/08/26 12:31:21;;;;;;;1.90;0.80;;;17.20;61.20;;;;;;5095863;28;20177;-88
2021/08/26 12:33:58;;;;;;;2.33;1.00;;;17.20;61.60;;;;;;5077742;28;20186;-88
2021/08/26 12:36:24;;;;;;;2.22;1.10;;;17.20;61.40;;;;;;5096133;28;20177;-88
2021/08/26 12:38:50;;;;;;;4.15;0.90;;;17.30;62.60;;;;;;5095724;28;20210;-88
2021/08/26 12:41:18;;;;;;;3.97;1.15;;;17.50;61.50;;;;;;5095591;28;20191;-88
2021/08/26 12:44:04;;;;;;;1.95;1.08;;;17.50;61.10;;;;;;5077541;28;20179;-88
2021/08/26 12:46:32;;;;;;;1.80;0.85;;;17.60;59.90;;;;;;5077387;28;20273;-88
2021/08/26 12:49:09;;;;;;;3.97;1.10;;;17.60;60.60;;;;;;5077906;28;20209;-88